Amber, Iowa
Current Conditions -  °F | °C
As of 10:15 AM on Thursday 27 Nov 2014 (Local Time) from KMXO Reporting Station
Few Clouds Few Clouds  
Wind Chill: -17°   Ceiling: Unl
Heat Index: -9°   Visibility: 10mi
Dew Point: -14°   Wind: 13mph
Humidity: 68%   Direction: 330°NNW
Pressure: 30.44"   Gusts: NA
Location:  42.1396°N, 91.2844°W
Report Text: KMXO 271615Z AUTO 33011KT 10SM FEW012 M09/M14 A3044 RMK AO2
Loading
Personal Weather Stations






























Interactive Weather Map New forecast layout! Learn more

10-Day Weather Forecast

Advertisements
Track Severe Weather on mobile